sensor_id;sensor_type;location;lat;lon;timestamp;P1;durP1;ratioP1;P2;durP2;ratioP2
51194;SDS011;37259;49.972;19.850;2023-05-18T00:00:51;34.2;;;23.1;;
51194;SDS011;37259;49.972;19.850;2023-05-18T00:01:51;34.2;;;23.1;;
51194;SDS011;37259;49.972;19.850;2023-05-18T00:02:51;34.2;;;23.1;;
51194;SDS011;37259;49.972;19.850;2023-05-18T00:03:51;34.2;;;23.1;;
51194;SDS011;37259;49.972;19.850;2023-05-18T00:04:51;34.2;;;23.1;;
51194;SDS011;37259;49.972;19.850;2023-05-18T00:05:51;34.2;;;23.1;;
51194;SDS011;37259;49.972;19.850;2023-05-18T00:06:51;34.2;;;23.1;;
51194;SDS011;37259;49.972;19.850;2023-05-18T00:07:51;34.2;;;23.1;;
51194;SDS011;37259;49.972;19.850;2023-05-18T00:08:51;34.2;;;23.1;;
51194;SDS011;37259;49.972;19.850;2023-05-18T00:09:51;34.2;;;23.1;;
51194;SDS011;37259;49.972;19.850;2023-05-18T00:10:51;34.2;;;23.1;;
51194;SDS011;37259;49.972;19.850;2023-05-18T00:11:51;34.2;;;23.1;;
51194;SDS011;37259;49.972;19.850;2023-05-18T00:12:51;34.2;;;23.1;;
51194;SDS011;37259;49.972;19.850;2023-05-18T00:13:51;34.2;;;23.1;;
51194;SDS011;37259;49.972;19.850;2023-05-18T00:14:51;34.2;;;23.1;;
51194;SDS011;37259;49.972;19.850;2023-05-18T00:15:51;29;;;20.8;;
51194;SDS011;37259;49.972;19.850;2023-05-18T00:16:51;29;;;20.8;;
51194;SDS011;37259;49.972;19.850;2023-05-18T00:17:51;29;;;20.8;;
51194;SDS011;37259;49.972;19.850;2023-05-18T00:18:51;29;;;20.8;;
51194;SDS011;37259;49.972;19.850;2023-05-18T00:19:51;29;;;20.8;;
51194;SDS011;37259;49.972;19.850;2023-05-18T00:20:51;29;;;20.8;;
51194;SDS011;37259;49.972;19.850;2023-05-18T00:21:51;29;;;20.8;;
51194;SDS011;37259;49.972;19.850;2023-05-18T00:22:51;29;;;20.8;;
51194;SDS011;37259;49.972;19.850;2023-05-18T00:23:51;29;;;20.8;;
51194;SDS011;37259;49.972;19.850;2023-05-18T00:24:51;29;;;20.8;;
51194;SDS011;37259;49.972;19.850;2023-05-18T00:25:51;29;;;20.8;;
51194;SDS011;37259;49.972;19.850;2023-05-18T00:26:51;29;;;20.8;;
51194;SDS011;37259;49.972;19.850;2023-05-18T00:27:51;29;;;20.8;;
51194;SDS011;37259;49.972;19.850;2023-05-18T00:28:51;29;;;20.8;;
51194;SDS011;37259;49.972;19.850;2023-05-18T00:29:51;29;;;20.8;;
51194;SDS011;37259;49.972;19.850;2023-05-18T00:30:51;29;;;20.8;;
51194;SDS011;37259;49.972;19.850;2023-05-18T00:31:51;29;;;20.8;;
51194;SDS011;37259;49.972;19.850;2023-05-18T00:32:51;29;;;20.8;;
51194;SDS011;37259;49.972;19.850;2023-05-18T00:33:51;29;;;20.8;;
51194;SDS011;37259;49.972;19.850;2023-05-18T00:34:51;29;;;20.8;;
51194;SDS011;37259;49.972;19.850;2023-05-18T00:35:51;29;;;20.8;;
51194;SDS011;37259;49.972;19.850;2023-05-18T00:36:51;29;;;20.8;;
51194;SDS011;37259;49.972;19.850;2023-05-18T00:37:51;29;;;20.8;;
51194;SDS011;37259;49.972;19.850;2023-05-18T00:38:51;29;;;20.8;;
51194;SDS011;37259;49.972;19.850;2023-05-18T00:39:51;29;;;20.8;;
51194;SDS011;37259;49.972;19.850;2023-05-18T00:40:51;29;;;20.8;;
51194;SDS011;37259;49.972;19.850;2023-05-18T00:41:51;29;;;20.8;;
51194;SDS011;37259;49.972;19.850;2023-05-18T00:42:51;29;;;20.8;;
51194;SDS011;37259;49.972;19.850;2023-05-18T00:43:51;29;;;20.8;;
51194;SDS011;37259;49.972;19.850;2023-05-18T00:44:51;29;;;20.8;;
51194;SDS011;37259;49.972;19.850;2023-05-18T00:45:51;22.3;;;18.1;;
51194;SDS011;37259;49.972;19.850;2023-05-18T00:46:51;22.3;;;18.1;;
51194;SDS011;37259;49.972;19.850;2023-05-18T00:47:51;22.3;;;18.1;;
51194;SDS011;37259;49.972;19.850;2023-05-18T00:48:52;22.3;;;18.1;;
51194;SDS011;37259;49.972;19.850;2023-05-18T00:49:51;22.3;;;18.1;;
51194;SDS011;37259;49.972;19.850;2023-05-18T00:50:51;22.3;;;18.1;;
51194;SDS011;37259;49.972;19.850;2023-05-18T00:51:51;22.3;;;18.1;;
51194;SDS011;37259;49.972;19.850;2023-05-18T00:52:51;22.3;;;18.1;;
51194;SDS011;37259;49.972;19.850;2023-05-18T00:53:52;22.3;;;18.1;;
51194;SDS011;37259;49.972;19.850;2023-05-18T00:54:51;22.3;;;18.1;;
51194;SDS011;37259;49.972;19.850;2023-05-18T00:55:51;22.3;;;18.1;;
51194;SDS011;37259;49.972;19.850;2023-05-18T00:56:51;22.3;;;18.1;;
51194;SDS011;37259;49.972;19.850;2023-05-18T00:57:51;22.3;;;18.1;;
51194;SDS011;37259;49.972;19.850;2023-05-18T00:58:51;22.3;;;18.1;;
51194;SDS011;37259;49.972;19.850;2023-05-18T00:59:51;22.3;;;18.1;;
51194;SDS011;37259;49.972;19.850;2023-05-18T01:00:51;22.3;;;18.1;;
51194;SDS011;37259;49.972;19.850;2023-05-18T01:01:51;22.3;;;18.1;;
51194;SDS011;37259;49.972;19.850;2023-05-18T01:02:51;22.3;;;18.1;;
51194;SDS011;37259;49.972;19.850;2023-05-18T01:03:51;22.3;;;18.1;;
51194;SDS011;37259;49.972;19.850;2023-05-18T01:04:51;22.3;;;18.1;;
51194;SDS011;37259;49.972;19.850;2023-05-18T01:05:51;22.3;;;18.1;;
51194;SDS011;37259;49.972;19.850;2023-05-18T01:06:51;22.3;;;18.1;;
51194;SDS011;37259;49.972;19.850;2023-05-18T01:07:51;22.3;;;18.1;;
51194;SDS011;37259;49.972;19.850;2023-05-18T01:08:51;22.3;;;18.1;;
51194;SDS011;37259;49.972;19.850;2023-05-18T01:09:51;22.3;;;18.1;;
51194;SDS011;37259;49.972;19.850;2023-05-18T01:10:52;22.3;;;18.1;;
51194;SDS011;37259;49.972;19.850;2023-05-18T01:11:54;22.3;;;18.1;;
51194;SDS011;37259;49.972;19.850;2023-05-18T01:12:52;22.3;;;18.1;;
51194;SDS011;37259;49.972;19.850;2023-05-18T01:13:53;22.3;;;18.1;;
51194;SDS011;37259;49.972;19.850;2023-05-18T01:14:53;22.3;;;18.1;;
51194;SDS011;37259;49.972;19.850;2023-05-18T01:15:53;23.3;;;15.7;;
51194;SDS011;37259;49.972;19.850;2023-05-18T01:16:53;23.3;;;15.7;;
51194;SDS011;37259;49.972;19.850;2023-05-18T01:17:57;23.3;;;15.7;;
51194;SDS011;37259;49.972;19.850;2023-05-18T01:18:53;23.3;;;15.7;;
51194;SDS011;37259;49.972;19.850;2023-05-18T01:20:26;23.3;;;15.7;;
51194;SDS011;37259;49.972;19.850;2023-05-18T01:20:55;23.3;;;15.7;;
51194;SDS011;37259;49.972;19.850;2023-05-18T01:21:55;23.3;;;15.7;;
51194;SDS011;37259;49.972;19.850;2023-05-18T01:22:57;23.3;;;15.7;;
51194;SDS011;37259;49.972;19.850;2023-05-18T01:24:02;23.3;;;15.7;;
51194;SDS011;37259;49.972;19.850;2023-05-18T01:24:51;23.3;;;15.7;;
51194;SDS011;37259;49.972;19.850;2023-05-18T01:25:59;23.3;;;15.7;;
51194;SDS011;37259;49.972;19.850;2023-05-18T01:26:51;23.3;;;15.7;;
51194;SDS011;37259;49.972;19.850;2023-05-18T01:27:51;23.3;;;15.7;;
51194;SDS011;37259;49.972;19.850;2023-05-18T01:28:51;23.3;;;15.7;;
51194;SDS011;37259;49.972;19.850;2023-05-18T01:29:51;23.3;;;15.7;;
51194;SDS011;37259;49.972;19.850;2023-05-18T01:30:51;23.3;;;15.7;;
51194;SDS011;37259;49.972;19.850;2023-05-18T01:31:51;23.3;;;15.7;;
51194;SDS011;37259;49.972;19.850;2023-05-18T01:32:51;23.3;;;15.7;;
51194;SDS011;37259;49.972;19.850;2023-05-18T01:33:51;23.3;;;15.7;;
51194;SDS011;37259;49.972;19.850;2023-05-18T01:34:51;23.3;;;15.7;;
51194;SDS011;37259;49.972;19.850;2023-05-18T01:35:51;23.3;;;15.7;;
51194;SDS011;37259;49.972;19.850;2023-05-18T01:36:51;23.3;;;15.7;;
51194;SDS011;37259;49.972;19.850;2023-05-18T01:37:51;23.3;;;15.7;;
51194;SDS011;37259;49.972;19.850;2023-05-18T01:38:51;23.3;;;15.7;;
51194;SDS011;37259;49.972;19.850;2023-05-18T01:39:51;23.3;;;15.7;;
51194;SDS011;37259;49.972;19.850;2023-05-18T01:40:53;23.3;;;15.7;;
51194;SDS011;37259;49.972;19.850;2023-05-18T01:41:53;23.3;;;15.7;;
51194;SDS011;37259;49.972;19.850;2023-05-18T01:42:51;23.3;;;15.7;;
51194;SDS011;37259;49.972;19.850;2023-05-18T01:43:52;23.3;;;15.7;;
51194;SDS011;37259;49.972;19.850;2023-05-18T01:44:52;23.3;;;15.7;;
51194;SDS011;37259;49.972;19.850;2023-05-18T01:45:52;24.1;;;17.7;;
51194;SDS011;37259;49.972;19.850;2023-05-18T01:46:52;24.1;;;17.7;;
51194;SDS011;37259;49.972;19.850;2023-05-18T01:47:51;24.1;;;17.7;;
51194;SDS011;37259;49.972;19.850;2023-05-18T01:48:53;24.1;;;17.7;;
51194;SDS011;37259;49.972;19.850;2023-05-18T01:49:53;24.1;;;17.7;;
51194;SDS011;37259;49.972;19.850;2023-05-18T01:50:53;24.1;;;17.7;;
51194;SDS011;37259;49.972;19.850;2023-05-18T01:51:51;24.1;;;17.7;;
51194;SDS011;37259;49.972;19.850;2023-05-18T01:52:52;24.1;;;17.7;;
51194;SDS011;37259;49.972;19.850;2023-05-18T01:53:51;24.1;;;17.7;;
51194;SDS011;37259;49.972;19.850;2023-05-18T01:54:53;24.1;;;17.7;;
51194;SDS011;37259;49.972;19.850;2023-05-18T01:55:51;24.1;;;17.7;;
51194;SDS011;37259;49.972;19.850;2023-05-18T01:56:51;24.1;;;17.7;;
51194;SDS011;37259;49.972;19.850;2023-05-18T01:57:51;24.1;;;17.7;;
51194;SDS011;37259;49.972;19.850;2023-05-18T01:58:51;24.1;;;17.7;;
51194;SDS011;37259;49.972;19.850;2023-05-18T01:59:51;24.1;;;17.7;;
51194;SDS011;37259;49.972;19.850;2023-05-18T02:00:51;24.1;;;17.7;;
51194;SDS011;37259;49.972;19.850;2023-05-18T02:01:51;24.1;;;17.7;;
51194;SDS011;37259;49.972;19.850;2023-05-18T02:02:51;24.1;;;17.7;;
51194;SDS011;37259;49.972;19.850;2023-05-18T02:03:51;24.1;;;17.7;;
51194;SDS011;37259;49.972;19.850;2023-05-18T02:04:51;24.1;;;17.7;;
51194;SDS011;37259;49.972;19.850;2023-05-18T02:05:51;24.1;;;17.7;;
51194;SDS011;37259;49.972;19.850;2023-05-18T02:06:51;24.1;;;17.7;;
51194;SDS011;37259;49.972;19.850;2023-05-18T02:07:51;24.1;;;17.7;;
51194;SDS011;37259;49.972;19.850;2023-05-18T02:08:51;24.1;;;17.7;;
51194;SDS011;37259;49.972;19.850;2023-05-18T02:09:51;24.1;;;17.7;;
51194;SDS011;37259;49.972;19.850;2023-05-18T02:10:51;24.1;;;17.7;;
51194;SDS011;37259;49.972;19.850;2023-05-18T02:11:51;24.1;;;17.7;;
51194;SDS011;37259;49.972;19.850;2023-05-18T02:12:51;24.1;;;17.7;;
51194;SDS011;37259;49.972;19.850;2023-05-18T02:13:51;24.1;;;17.7;;
51194;SDS011;37259;49.972;19.850;2023-05-18T02:14:51;24.1;;;17.7;;
51194;SDS011;37259;49.972;19.850;2023-05-18T02:15:51;19.4;;;13.5;;
51194;SDS011;37259;49.972;19.850;2023-05-18T02:16:51;19.4;;;13.5;;
51194;SDS011;37259;49.972;19.850;2023-05-18T02:17:51;19.4;;;13.5;;
51194;SDS011;37259;49.972;19.850;2023-05-18T02:18:51;19.4;;;13.5;;
51194;SDS011;37259;49.972;19.850;2023-05-18T02:19:51;19.4;;;13.5;;
51194;SDS011;37259;49.972;19.850;2023-05-18T02:20:56;19.4;;;13.5;;
51194;SDS011;37259;49.972;19.850;2023-05-18T02:21:51;19.4;;;13.5;;
51194;SDS011;37259;49.972;19.850;2023-05-18T02:22:51;19.4;;;13.5;;
51194;SDS011;37259;49.972;19.850;2023-05-18T02:23:51;19.4;;;13.5;;
51194;SDS011;37259;49.972;19.850;2023-05-18T02:24:51;19.4;;;13.5;;
51194;SDS011;37259;49.972;19.850;2023-05-18T02:25:51;19.4;;;13.5;;
51194;SDS011;37259;49.972;19.850;2023-05-18T02:26:51;19.4;;;13.5;;
51194;SDS011;37259;49.972;19.850;2023-05-18T02:27:51;19.4;;;13.5;;
51194;SDS011;37259;49.972;19.850;2023-05-18T02:28:51;19.4;;;13.5;;
51194;SDS011;37259;49.972;19.850;2023-05-18T02:29:51;19.4;;;13.5;;
51194;SDS011;37259;49.972;19.850;2023-05-18T02:30:51;19.4;;;13.5;;
51194;SDS011;37259;49.972;19.850;2023-05-18T02:31:51;19.4;;;13.5;;
51194;SDS011;37259;49.972;19.850;2023-05-18T02:32:51;19.4;;;13.5;;
51194;SDS011;37259;49.972;19.850;2023-05-18T02:33:51;19.4;;;13.5;;
51194;SDS011;37259;49.972;19.850;2023-05-18T02:34:52;19.4;;;13.5;;
51194;SDS011;37259;49.972;19.850;2023-05-18T02:35:51;19.4;;;13.5;;
51194;SDS011;37259;49.972;19.850;2023-05-18T02:36:51;19.4;;;13.5;;
51194;SDS011;37259;49.972;19.850;2023-05-18T02:37:51;19.4;;;13.5;;
51194;SDS011;37259;49.972;19.850;2023-05-18T02:38:51;19.4;;;13.5;;
51194;SDS011;37259;49.972;19.850;2023-05-18T02:39:51;19.4;;;13.5;;
51194;SDS011;37259;49.972;19.850;2023-05-18T02:40:51;19.4;;;13.5;;
51194;SDS011;37259;49.972;19.850;2023-05-18T02:41:51;19.4;;;13.5;;
51194;SDS011;37259;49.972;19.850;2023-05-18T02:42:51;19.4;;;13.5;;
51194;SDS011;37259;49.972;19.850;2023-05-18T02:43:51;19.4;;;13.5;;
51194;SDS011;37259;49.972;19.850;2023-05-18T02:44:51;19.4;;;13.5;;
51194;SDS011;37259;49.972;19.850;2023-05-18T02:45:51;12.5;;;8.2;;
51194;SDS011;37259;49.972;19.850;2023-05-18T02:46:51;12.5;;;8.2;;
51194;SDS011;37259;49.972;19.850;2023-05-18T02:47:51;12.5;;;8.2;;
51194;SDS011;37259;49.972;19.850;2023-05-18T02:48:51;12.5;;;8.2;;
51194;SDS011;37259;49.972;19.850;2023-05-18T02:49:51;12.5;;;8.2;;
51194;SDS011;37259;49.972;19.850;2023-05-18T02:50:51;12.5;;;8.2;;
51194;SDS011;37259;49.972;19.850;2023-05-18T02:51:51;12.5;;;8.2;;
51194;SDS011;37259;49.972;19.850;2023-05-18T02:52:51;12.5;;;8.2;;
51194;SDS011;37259;49.972;19.850;2023-05-18T02:53:51;12.5;;;8.2;;
51194;SDS011;37259;49.972;19.850;2023-05-18T02:54:51;12.5;;;8.2;;
51194;SDS011;37259;49.972;19.850;2023-05-18T02:55:52;12.5;;;8.2;;
51194;SDS011;37259;49.972;19.850;2023-05-18T02:56:51;12.5;;;8.2;;
51194;SDS011;37259;49.972;19.850;2023-05-18T02:57:51;12.5;;;8.2;;
51194;SDS011;37259;49.972;19.850;2023-05-18T02:58:51;12.5;;;8.2;;
51194;SDS011;37259;49.972;19.850;2023-05-18T02:59:51;12.5;;;8.2;;
51194;SDS011;37259;49.972;19.850;2023-05-18T03:00:51;12.5;;;8.2;;
51194;SDS011;37259;49.972;19.850;2023-05-18T03:01:51;12.5;;;8.2;;
51194;SDS011;37259;49.972;19.850;2023-05-18T03:02:51;12.5;;;8.2;;
51194;SDS011;37259;49.972;19.850;2023-05-18T03:03:51;12.5;;;8.2;;
51194;SDS011;37259;49.972;19.850;2023-05-18T03:04:51;12.5;;;8.2;;
51194;SDS011;37259;49.972;19.850;2023-05-18T03:05:52;12.5;;;8.2;;
51194;SDS011;37259;49.972;19.850;2023-05-18T03:06:51;12.5;;;8.2;;
51194;SDS011;37259;49.972;19.850;2023-05-18T03:07:51;12.5;;;8.2;;
51194;SDS011;37259;49.972;19.850;2023-05-18T03:08:51;12.5;;;8.2;;
51194;SDS011;37259;49.972;19.850;2023-05-18T03:09:51;12.5;;;8.2;;
51194;SDS011;37259;49.972;19.850;2023-05-18T03:10:51;12.5;;;8.2;;
51194;SDS011;37259;49.972;19.850;2023-05-18T03:11:51;12.5;;;8.2;;
51194;SDS011;37259;49.972;19.850;2023-05-18T03:12:51;12.5;;;8.2;;
51194;SDS011;37259;49.972;19.850;2023-05-18T03:13:51;12.5;;;8.2;;
51194;SDS011;37259;49.972;19.850;2023-05-18T03:14:51;12.5;;;8.2;;
51194;SDS011;37259;49.972;19.850;2023-05-18T03:15:51;14;;;8.1;;
51194;SDS011;37259;49.972;19.850;2023-05-18T03:16:51;14;;;8.1;;
51194;SDS011;37259;49.972;19.850;2023-05-18T03:17:51;14;;;8.1;;
51194;SDS011;37259;49.972;19.850;2023-05-18T03:18:51;14;;;8.1;;
51194;SDS011;37259;49.972;19.850;2023-05-18T03:19:51;14;;;8.1;;
51194;SDS011;37259;49.972;19.850;2023-05-18T03:20:51;14;;;8.1;;
51194;SDS011;37259;49.972;19.850;2023-05-18T03:21:51;14;;;8.1;;
51194;SDS011;37259;49.972;19.850;2023-05-18T03:22:51;14;;;8.1;;
51194;SDS011;37259;49.972;19.850;2023-05-18T03:23:51;14;;;8.1;;
51194;SDS011;37259;49.972;19.850;2023-05-18T03:24:51;14;;;8.1;;
51194;SDS011;37259;49.972;19.850;2023-05-18T03:25:51;14;;;8.1;;
51194;SDS011;37259;49.972;19.850;2023-05-18T03:26:51;14;;;8.1;;
51194;SDS011;37259;49.972;19.850;2023-05-18T03:27:51;14;;;8.1;;
51194;SDS011;37259;49.972;19.850;2023-05-18T03:28:51;14;;;8.1;;
51194;SDS011;37259;49.972;19.850;2023-05-18T03:29:51;14;;;8.1;;
51194;SDS011;37259;49.972;19.850;2023-05-18T03:30:51;14;;;8.1;;
51194;SDS011;37259;49.972;19.850;2023-05-18T03:31:51;14;;;8.1;;
51194;SDS011;37259;49.972;19.850;2023-05-18T03:32:51;14;;;8.1;;
51194;SDS011;37259;49.972;19.850;2023-05-18T03:33:51;14;;;8.1;;
51194;SDS011;37259;49.972;19.850;2023-05-18T03:34:51;14;;;8.1;;
51194;SDS011;37259;49.972;19.850;2023-05-18T03:35:51;14;;;8.1;;
51194;SDS011;37259;49.972;19.850;2023-05-18T03:36:51;14;;;8.1;;
51194;SDS011;37259;49.972;19.850;2023-05-18T03:37:51;14;;;8.1;;
51194;SDS011;37259;49.972;19.850;2023-05-18T03:38:51;14;;;8.1;;
51194;SDS011;37259;49.972;19.850;2023-05-18T03:39:51;14;;;8.1;;
51194;SDS011;37259;49.972;19.850;2023-05-18T03:40:51;14;;;8.1;;
51194;SDS011;37259;49.972;19.850;2023-05-18T03:41:51;14;;;8.1;;
51194;SDS011;37259;49.972;19.850;2023-05-18T03:42:51;14;;;8.1;;
51194;SDS011;37259;49.972;19.850;2023-05-18T03:43:51;14;;;8.1;;
51194;SDS011;37259;49.972;19.850;2023-05-18T03:44:51;14;;;8.1;;
51194;SDS011;37259;49.972;19.850;2023-05-18T03:45:51;16.2;;;8;;
51194;SDS011;37259;49.972;19.850;2023-05-18T03:46:51;16.2;;;8;;
51194;SDS011;37259;49.972;19.850;2023-05-18T03:47:51;16.2;;;8;;
51194;SDS011;37259;49.972;19.850;2023-05-18T03:48:51;16.2;;;8;;
51194;SDS011;37259;49.972;19.850;2023-05-18T03:49:51;16.2;;;8;;
51194;SDS011;37259;49.972;19.850;2023-05-18T03:50:51;16.2;;;8;;
51194;SDS011;37259;49.972;19.850;2023-05-18T03:51:51;16.2;;;8;;
51194;SDS011;37259;49.972;19.850;2023-05-18T03:52:51;16.2;;;8;;
51194;SDS011;37259;49.972;19.850;2023-05-18T03:53:51;16.2;;;8;;
51194;SDS011;37259;49.972;19.850;2023-05-18T03:54:51;16.2;;;8;;
51194;SDS011;37259;49.972;19.850;2023-05-18T03:55:51;16.2;;;8;;
51194;SDS011;37259;49.972;19.850;2023-05-18T03:56:51;16.2;;;8;;
51194;SDS011;37259;49.972;19.850;2023-05-18T03:57:51;16.2;;;8;;
51194;SDS011;37259;49.972;19.850;2023-05-18T03:58:51;16.2;;;8;;
51194;SDS011;37259;49.972;19.850;2023-05-18T03:59:51;16.2;;;8;;
51194;SDS011;37259;49.972;19.850;2023-05-18T04:00:51;16.2;;;8;;
51194;SDS011;37259;49.972;19.850;2023-05-18T04:01:51;16.2;;;8;;
51194;SDS011;37259;49.972;19.850;2023-05-18T04:02:51;16.2;;;8;;
51194;SDS011;37259;49.972;19.850;2023-05-18T04:03:51;16.2;;;8;;
51194;SDS011;37259;49.972;19.850;2023-05-18T04:04:51;16.2;;;8;;
51194;SDS011;37259;49.972;19.850;2023-05-18T04:05:51;16.2;;;8;;
51194;SDS011;37259;49.972;19.850;2023-05-18T04:06:51;16.2;;;8;;
51194;SDS011;37259;49.972;19.850;2023-05-18T04:07:51;16.2;;;8;;
51194;SDS011;37259;49.972;19.850;2023-05-18T04:08:51;16.2;;;8;;
51194;SDS011;37259;49.972;19.850;2023-05-18T04:09:52;16.2;;;8;;
51194;SDS011;37259;49.972;19.850;2023-05-18T04:10:51;16.2;;;8;;
51194;SDS011;37259;49.972;19.850;2023-05-18T04:11:51;16.2;;;8;;
51194;SDS011;37259;49.972;19.850;2023-05-18T04:12:51;16.2;;;8;;
51194;SDS011;37259;49.972;19.850;2023-05-18T04:13:51;16.2;;;8;;
51194;SDS011;37259;49.972;19.850;2023-05-18T04:14:51;16.2;;;8;;
51194;SDS011;37259;49.972;19.850;2023-05-18T04:15:51;12.6;;;9.1;;
51194;SDS011;37259;49.972;19.850;2023-05-18T04:16:51;12.6;;;9.1;;
51194;SDS011;37259;49.972;19.850;2023-05-18T04:17:51;12.6;;;9.1;;
51194;SDS011;37259;49.972;19.850;2023-05-18T04:18:51;12.6;;;9.1;;
51194;SDS011;37259;49.972;19.850;2023-05-18T04:19:51;12.6;;;9.1;;
51194;SDS011;37259;49.972;19.850;2023-05-18T04:20:51;12.6;;;9.1;;
51194;SDS011;37259;49.972;19.850;2023-05-18T04:21:51;12.6;;;9.1;;
51194;SDS011;37259;49.972;19.850;2023-05-18T04:22:51;12.6;;;9.1;;
51194;SDS011;37259;49.972;19.850;2023-05-18T04:23:51;12.6;;;9.1;;
51194;SDS011;37259;49.972;19.850;2023-05-18T04:24:51;12.6;;;9.1;;
51194;SDS011;37259;49.972;19.850;2023-05-18T04:25:51;12.6;;;9.1;;
51194;SDS011;37259;49.972;19.850;2023-05-18T04:26:51;12.6;;;9.1;;
51194;SDS011;37259;49.972;19.850;2023-05-18T04:27:51;12.6;;;9.1;;
51194;SDS011;37259;49.972;19.850;2023-05-18T04:28:51;12.6;;;9.1;;
51194;SDS011;37259;49.972;19.850;2023-05-18T04:29:51;12.6;;;9.1;;
51194;SDS011;37259;49.972;19.850;2023-05-18T04:30:51;12.6;;;9.1;;
51194;SDS011;37259;49.972;19.850;2023-05-18T04:31:51;12.6;;;9.1;;
51194;SDS011;37259;49.972;19.850;2023-05-18T04:32:51;12.6;;;9.1;;
51194;SDS011;37259;49.972;19.850;2023-05-18T04:33:51;12.6;;;9.1;;
51194;SDS011;37259;49.972;19.850;2023-05-18T04:34:51;12.6;;;9.1;;
51194;SDS011;37259;49.972;19.850;2023-05-18T04:35:51;12.6;;;9.1;;
51194;SDS011;37259;49.972;19.850;2023-05-18T04:36:51;12.6;;;9.1;;
51194;SDS011;37259;49.972;19.850;2023-05-18T04:37:51;12.6;;;9.1;;
51194;SDS011;37259;49.972;19.850;2023-05-18T04:38:51;12.6;;;9.1;;
51194;SDS011;37259;49.972;19.850;2023-05-18T04:39:51;12.6;;;9.1;;
51194;SDS011;37259;49.972;19.850;2023-05-18T04:40:51;12.6;;;9.1;;
51194;SDS011;37259;49.972;19.850;2023-05-18T04:41:51;12.6;;;9.1;;
51194;SDS011;37259;49.972;19.850;2023-05-18T04:42:51;12.6;;;9.1;;
51194;SDS011;37259;49.972;19.850;2023-05-18T04:43:51;12.6;;;9.1;;
51194;SDS011;37259;49.972;19.850;2023-05-18T04:44:51;12.6;;;9.1;;
51194;SDS011;37259;49.972;19.850;2023-05-18T04:45:51;13.5;;;6.4;;
51194;SDS011;37259;49.972;19.850;2023-05-18T04:46:51;13.5;;;6.4;;
51194;SDS011;37259;49.972;19.850;2023-05-18T04:47:51;13.5;;;6.4;;
51194;SDS011;37259;49.972;19.850;2023-05-18T04:48:51;13.5;;;6.4;;
51194;SDS011;37259;49.972;19.850;2023-05-18T04:49:51;13.5;;;6.4;;
51194;SDS011;37259;49.972;19.850;2023-05-18T04:50:51;13.5;;;6.4;;
51194;SDS011;37259;49.972;19.850;2023-05-18T04:51:52;13.5;;;6.4;;
51194;SDS011;37259;49.972;19.850;2023-05-18T04:52:52;13.5;;;6.4;;
51194;SDS011;37259;49.972;19.850;2023-05-18T04:53:51;13.5;;;6.4;;
51194;SDS011;37259;49.972;19.850;2023-05-18T04:54:51;13.5;;;6.4;;
51194;SDS011;37259;49.972;19.850;2023-05-18T04:55:51;13.5;;;6.4;;
51194;SDS011;37259;49.972;19.850;2023-05-18T04:56:51;13.5;;;6.4;;
51194;SDS011;37259;49.972;19.850;2023-05-18T04:57:52;13.5;;;6.4;;
51194;SDS011;37259;49.972;19.850;2023-05-18T04:58:51;13.5;;;6.4;;
51194;SDS011;37259;49.972;19.850;2023-05-18T04:59:51;13.5;;;6.4;;
51194;SDS011;37259;49.972;19.850;2023-05-18T05:00:51;13.5;;;6.4;;
51194;SDS011;37259;49.972;19.850;2023-05-18T05:01:51;13.5;;;6.4;;
51194;SDS011;37259;49.972;19.850;2023-05-18T05:02:51;13.5;;;6.4;;
51194;SDS011;37259;49.972;19.850;2023-05-18T05:03:51;13.5;;;6.4;;
51194;SDS011;37259;49.972;19.850;2023-05-18T05:04:51;13.5;;;6.4;;
51194;SDS011;37259;49.972;19.850;2023-05-18T05:05:51;13.5;;;6.4;;
51194;SDS011;37259;49.972;19.850;2023-05-18T05:06:51;13.5;;;6.4;;
51194;SDS011;37259;49.972;19.850;2023-05-18T05:07:52;13.5;;;6.4;;
51194;SDS011;37259;49.972;19.850;2023-05-18T05:08:52;13.5;;;6.4;;
51194;SDS011;37259;49.972;19.850;2023-05-18T05:09:52;13.5;;;6.4;;
51194;SDS011;37259;49.972;19.850;2023-05-18T05:10:51;13.5;;;6.4;;
51194;SDS011;37259;49.972;19.850;2023-05-18T05:11:51;13.5;;;6.4;;
51194;SDS011;37259;49.972;19.850;2023-05-18T05:12:51;13.5;;;6.4;;
51194;SDS011;37259;49.972;19.850;2023-05-18T05:13:51;13.5;;;6.4;;
51194;SDS011;37259;49.972;19.850;2023-05-18T05:14:51;13.5;;;6.4;;
51194;SDS011;37259;49.972;19.850;2023-05-18T05:15:51;8.3;;;3.9;;
51194;SDS011;37259;49.972;19.850;2023-05-18T05:16:51;8.3;;;3.9;;
51194;SDS011;37259;49.972;19.850;2023-05-18T05:17:51;8.3;;;3.9;;
51194;SDS011;37259;49.972;19.850;2023-05-18T05:18:51;8.3;;;3.9;;
51194;SDS011;37259;49.972;19.850;2023-05-18T05:19:51;8.3;;;3.9;;
51194;SDS011;37259;49.972;19.850;2023-05-18T05:20:52;8.3;;;3.9;;
51194;SDS011;37259;49.972;19.850;2023-05-18T05:21:51;8.3;;;3.9;;
51194;SDS011;37259;49.972;19.850;2023-05-18T05:22:51;8.3;;;3.9;;
51194;SDS011;37259;49.972;19.850;2023-05-18T05:23:51;8.3;;;3.9;;
51194;SDS011;37259;49.972;19.850;2023-05-18T05:24:51;8.3;;;3.9;;
51194;SDS011;37259;49.972;19.850;2023-05-18T05:25:51;8.3;;;3.9;;
51194;SDS011;37259;49.972;19.850;2023-05-18T05:26:51;8.3;;;3.9;;
51194;SDS011;37259;49.972;19.850;2023-05-18T05:27:51;8.3;;;3.9;;
51194;SDS011;37259;49.972;19.850;2023-05-18T05:28:51;8.3;;;3.9;;
51194;SDS011;37259;49.972;19.850;2023-05-18T05:29:51;8.3;;;3.9;;
51194;SDS011;37259;49.972;19.850;2023-05-18T05:30:51;8.3;;;3.9;;
51194;SDS011;37259;49.972;19.850;2023-05-18T05:31:51;8.3;;;3.9;;
51194;SDS011;37259;49.972;19.850;2023-05-18T05:32:51;8.3;;;3.9;;
51194;SDS011;37259;49.972;19.850;2023-05-18T05:33:51;8.3;;;3.9;;
51194;SDS011;37259;49.972;19.850;2023-05-18T05:34:51;8.3;;;3.9;;
51194;SDS011;37259;49.972;19.850;2023-05-18T05:35:51;8.3;;;3.9;;
51194;SDS011;37259;49.972;19.850;2023-05-18T05:36:51;8.3;;;3.9;;
51194;SDS011;37259;49.972;19.850;2023-05-18T05:37:51;8.3;;;3.9;;
51194;SDS011;37259;49.972;19.850;2023-05-18T05:38:51;8.3;;;3.9;;
51194;SDS011;37259;49.972;19.850;2023-05-18T05:39:51;8.3;;;3.9;;
51194;SDS011;37259;49.972;19.850;2023-05-18T05:40:51;8.3;;;3.9;;
51194;SDS011;37259;49.972;19.850;2023-05-18T05:41:52;8.3;;;3.9;;
51194;SDS011;37259;49.972;19.850;2023-05-18T05:42:51;8.3;;;3.9;;
51194;SDS011;37259;49.972;19.850;2023-05-18T05:43:51;8.3;;;3.9;;
51194;SDS011;37259;49.972;19.850;2023-05-18T05:44:51;7.1;;;4.3;;
51194;SDS011;37259;49.972;19.850;2023-05-18T05:45:51;7.1;;;4.3;;
51194;SDS011;37259;49.972;19.850;2023-05-18T05:46:51;7.1;;;4.3;;
51194;SDS011;37259;49.972;19.850;2023-05-18T05:47:51;7.1;;;4.3;;
51194;SDS011;37259;49.972;19.850;2023-05-18T05:48:51;7.1;;;4.3;;
51194;SDS011;37259;49.972;19.850;2023-05-18T05:49:51;7.1;;;4.3;;
51194;SDS011;37259;49.972;19.850;2023-05-18T05:50:51;7.1;;;4.3;;
51194;SDS011;37259;49.972;19.850;2023-05-18T05:51:51;7.1;;;4.3;;
51194;SDS011;37259;49.972;19.850;2023-05-18T05:52:51;7.1;;;4.3;;
51194;SDS011;37259;49.972;19.850;2023-05-18T05:53:51;7.1;;;4.3;;
51194;SDS011;37259;49.972;19.850;2023-05-18T05:54:51;7.1;;;4.3;;
51194;SDS011;37259;49.972;19.850;2023-05-18T05:55:51;7.1;;;4.3;;
51194;SDS011;37259;49.972;19.850;2023-05-18T05:56:51;7.1;;;4.3;;
51194;SDS011;37259;49.972;19.850;2023-05-18T05:57:52;7.1;;;4.3;;
51194;SDS011;37259;49.972;19.850;2023-05-18T05:58:51;7.1;;;4.3;;
51194;SDS011;37259;49.972;19.850;2023-05-18T05:59:51;7.1;;;4.3;;
51194;SDS011;37259;49.972;19.850;2023-05-18T06:00:51;7.1;;;4.3;;
51194;SDS011;37259;49.972;19.850;2023-05-18T06:01:51;7.1;;;4.3;;
51194;SDS011;37259;49.972;19.850;2023-05-18T06:02:51;7.1;;;4.3;;